sensor_id;sensor_type;location;lat;lon;timestamp;temperature;humidity
7894;DHT22;51343;51.396;6.656;2023-03-01T00:04:15;-1.40;99.90
7894;DHT22;51343;51.396;6.656;2023-03-01T00:06:43;-1.30;99.90
7894;DHT22;51343;51.396;6.656;2023-03-01T00:09:11;-1.40;99.90
7894;DHT22;51343;51.396;6.656;2023-03-01T00:11:38;-1.40;99.90
7894;DHT22;51343;51.396;6.656;2023-03-01T00:14:06;-1.40;99.90
7894;DHT22;51343;51.396;6.656;2023-03-01T00:16:33;-1.40;99.90
7894;DHT22;51343;51.396;6.656;2023-03-01T00:19:01;-1.50;99.90
7894;DHT22;51343;51.396;6.656;2023-03-01T00:21:30;-1.50;99.90
7894;DHT22;51343;51.396;6.656;2023-03-01T00:24:11;-1.50;99.90
7894;DHT22;51343;51.396;6.656;2023-03-01T00:26:38;-1.50;99.90
7894;DHT22;51343;51.396;6.656;2023-03-01T00:29:08;-1.50;99.90
7894;DHT22;51343;51.396;6.656;2023-03-01T00:31:37;-1.50;99.90
7894;DHT22;51343;51.396;6.656;2023-03-01T00:34:17;-1.50;99.90
7894;DHT22;51343;51.396;6.656;2023-03-01T00:36:48;-1.50;99.90
7894;DHT22;51343;51.396;6.656;2023-03-01T00:39:23;-1.50;99.90
7894;DHT22;51343;51.396;6.656;2023-03-01T00:41:50;-1.60;99.90
7894;DHT22;51343;51.396;6.656;2023-03-01T00:44:17;-1.50;99.90
7894;DHT22;51343;51.396;6.656;2023-03-01T00:46:45;-1.60;99.90
7894;DHT22;51343;51.396;6.656;2023-03-01T00:51:50;-1.60;99.90
7894;DHT22;51343;51.396;6.656;2023-03-01T00:54:18;-1.60;99.90
7894;DHT22;51343;51.396;6.656;2023-03-01T00:56:53;-1.70;99.90
7894;DHT22;51343;51.396;6.656;2023-03-01T00:59:23;-1.70;99.90
7894;DHT22;51343;51.396;6.656;2023-03-01T01:01:52;-1.70;99.90
7894;DHT22;51343;51.396;6.656;2023-03-01T01:04:20;-1.70;99.90
7894;DHT22;51343;51.396;6.656;2023-03-01T01:06:47;-1.70;99.90
7894;DHT22;51343;51.396;6.656;2023-03-01T01:09:19;-1.70;99.90
7894;DHT22;51343;51.396;6.656;2023-03-01T01:11:47;-1.70;99.90
7894;DHT22;51343;51.396;6.656;2023-03-01T01:14:23;-1.80;99.90
7894;DHT22;51343;51.396;6.656;2023-03-01T01:16:53;-1.80;99.90
7894;DHT22;51343;51.396;6.656;2023-03-01T01:22:01;-1.90;99.90
7894;DHT22;51343;51.396;6.656;2023-03-01T01:24:30;-1.90;99.90
7894;DHT22;51343;51.396;6.656;2023-03-01T01:27:00;-1.90;99.90
7894;DHT22;51343;51.396;6.656;2023-03-01T01:29:28;-1.90;99.90
7894;DHT22;51343;51.396;6.656;2023-03-01T01:31:57;-1.90;99.90
7894;DHT22;51343;51.396;6.656;2023-03-01T01:34:24;-1.90;99.90
7894;DHT22;51343;51.396;6.656;2023-03-01T01:36:52;-1.90;99.90
7894;DHT22;51343;51.396;6.656;2023-03-01T01:39:25;-2.00;99.90
7894;DHT22;51343;51.396;6.656;2023-03-01T01:41:54;-2.00;99.90
7894;DHT22;51343;51.396;6.656;2023-03-01T01:44:24;-1.90;99.90
7894;DHT22;51343;51.396;6.656;2023-03-01T01:46:52;-2.00;99.90
7894;DHT22;51343;51.396;6.656;2023-03-01T01:49:35;-2.00;99.90
7894;DHT22;51343;51.396;6.656;2023-03-01T01:52:08;-2.00;99.90
7894;DHT22;51343;51.396;6.656;2023-03-01T01:54:39;-2.10;99.90
7894;DHT22;51343;51.396;6.656;2023-03-01T01:57:11;-2.10;99.90
7894;DHT22;51343;51.396;6.656;2023-03-01T01:59:40;-2.10;99.90
7894;DHT22;51343;51.396;6.656;2023-03-01T02:02:10;-2.10;99.90
7894;DHT22;51343;51.396;6.656;2023-03-01T02:04:49;-2.10;99.90
7894;DHT22;51343;51.396;6.656;2023-03-01T02:07:20;-2.10;99.90
7894;DHT22;51343;51.396;6.656;2023-03-01T02:09:49;-2.20;99.90
7894;DHT22;51343;51.396;6.656;2023-03-01T02:12:30;-2.20;99.90
7894;DHT22;51343;51.396;6.656;2023-03-01T02:14:57;-2.20;99.90
7894;DHT22;51343;51.396;6.656;2023-03-01T02:17:25;-2.20;99.90
7894;DHT22;51343;51.396;6.656;2023-03-01T02:19:56;-2.20;99.90
7894;DHT22;51343;51.396;6.656;2023-03-01T02:22:27;-2.20;99.90
7894;DHT22;51343;51.396;6.656;2023-03-01T02:24:58;-2.10;99.90
7894;DHT22;51343;51.396;6.656;2023-03-01T02:27:29;-2.20;99.90
7894;DHT22;51343;51.396;6.656;2023-03-01T02:30:00;-2.10;99.90
7894;DHT22;51343;51.396;6.656;2023-03-01T02:32:27;-2.10;99.90
7894;DHT22;51343;51.396;6.656;2023-03-01T02:34:54;-2.10;99.90
7894;DHT22;51343;51.396;6.656;2023-03-01T02:37:22;-2.10;99.90
7894;DHT22;51343;51.396;6.656;2023-03-01T02:39:51;-2.10;99.90
7894;DHT22;51343;51.396;6.656;2023-03-01T02:42:23;-1.90;99.90
7894;DHT22;51343;51.396;6.656;2023-03-01T02:44:51;-2.00;99.90
7894;DHT22;51343;51.396;6.656;2023-03-01T02:47:20;-2.00;99.90
7894;DHT22;51343;51.396;6.656;2023-03-01T02:49:47;-2.00;99.90
7894;DHT22;51343;51.396;6.656;2023-03-01T02:52:21;-2.00;99.90
7894;DHT22;51343;51.396;6.656;2023-03-01T02:54:50;-2.00;99.90
7894;DHT22;51343;51.396;6.656;2023-03-01T02:57:21;-1.90;99.90
7894;DHT22;51343;51.396;6.656;2023-03-01T02:59:49;-1.90;99.90
7894;DHT22;51343;51.396;6.656;2023-03-01T03:02:22;-1.90;99.90
7894;DHT22;51343;51.396;6.656;2023-03-01T03:05:02;-1.90;99.90
7894;DHT22;51343;51.396;6.656;2023-03-01T03:07:32;-1.90;99.90
7894;DHT22;51343;51.396;6.656;2023-03-01T03:09:59;-1.90;99.90
7894;DHT22;51343;51.396;6.656;2023-03-01T03:12:32;-2.00;99.90
7894;DHT22;51343;51.396;6.656;2023-03-01T03:15:12;-2.00;99.90
7894;DHT22;51343;51.396;6.656;2023-03-01T03:17:41;-1.90;99.90
7894;DHT22;51343;51.396;6.656;2023-03-01T03:20:16;-1.80;99.90
7894;DHT22;51343;51.396;6.656;2023-03-01T03:22:44;-1.80;99.90
7894;DHT22;51343;51.396;6.656;2023-03-01T03:25:11;-1.70;99.90
7894;DHT22;51343;51.396;6.656;2023-03-01T03:27:47;-1.80;99.90
7894;DHT22;51343;51.396;6.656;2023-03-01T03:32:54;-1.70;99.90
7894;DHT22;51343;51.396;6.656;2023-03-01T03:35:25;-1.80;99.90
7894;DHT22;51343;51.396;6.656;2023-03-01T03:37:52;-1.90;99.90
7894;DHT22;51343;51.396;6.656;2023-03-01T03:40:29;-1.90;99.90
7894;DHT22;51343;51.396;6.656;2023-03-01T03:42:56;-1.80;99.90
7894;DHT22;51343;51.396;6.656;2023-03-01T03:45:23;-1.80;99.90
7894;DHT22;51343;51.396;6.656;2023-03-01T03:47:50;-1.80;99.90
7894;DHT22;51343;51.396;6.656;2023-03-01T03:50:19;-1.80;99.90
7894;DHT22;51343;51.396;6.656;2023-03-01T03:52:48;-1.70;99.90
7894;DHT22;51343;51.396;6.656;2023-03-01T03:55:15;-1.80;99.90
7894;DHT22;51343;51.396;6.656;2023-03-01T03:57:52;-1.80;99.90
7894;DHT22;51343;51.396;6.656;2023-03-01T04:00:20;-1.70;99.90
7894;DHT22;51343;51.396;6.656;2023-03-01T04:02:49;-1.70;99.90
7894;DHT22;51343;51.396;6.656;2023-03-01T04:05:17;-1.70;99.90
7894;DHT22;51343;51.396;6.656;2023-03-01T04:07:47;-1.70;99.90
7894;DHT22;51343;51.396;6.656;2023-03-01T04:10:14;-1.70;99.90
7894;DHT22;51343;51.396;6.656;2023-03-01T04:12:48;-1.70;99.90
7894;DHT22;51343;51.396;6.656;2023-03-01T04:15:15;-1.70;99.90
7894;DHT22;51343;51.396;6.656;2023-03-01T04:17:42;-1.70;99.90
7894;DHT22;51343;51.396;6.656;2023-03-01T04:20:21;-1.70;99.90
7894;DHT22;51343;51.396;6.656;2023-03-01T04:22:52;-1.80;99.90
7894;DHT22;51343;51.396;6.656;2023-03-01T04:25:19;-1.90;99.90
7894;DHT22;51343;51.396;6.656;2023-03-01T04:27:47;-1.90;99.90
7894;DHT22;51343;51.396;6.656;2023-03-01T04:30:18;-2.00;99.90
7894;DHT22;51343;51.396;6.656;2023-03-01T04:32:45;-2.10;99.90
7894;DHT22;51343;51.396;6.656;2023-03-01T04:37:49;-2.20;99.90
7894;DHT22;51343;51.396;6.656;2023-03-01T04:40:17;-2.20;99.90
7894;DHT22;51343;51.396;6.656;2023-03-01T04:42:44;-2.30;99.90
7894;DHT22;51343;51.396;6.656;2023-03-01T04:45:12;-2.30;99.90
7894;DHT22;51343;51.396;6.656;2023-03-01T04:47:40;-2.30;99.90
7894;DHT22;51343;51.396;6.656;2023-03-01T04:50:11;-2.30;99.90
7894;DHT22;51343;51.396;6.656;2023-03-01T04:52:39;-2.30;99.90
7894;DHT22;51343;51.396;6.656;2023-03-01T04:55:06;-2.30;99.90
7894;DHT22;51343;51.396;6.656;2023-03-01T04:57:35;-2.30;99.90
7894;DHT22;51343;51.396;6.656;2023-03-01T05:00:02;-2.30;99.90
7894;DHT22;51343;51.396;6.656;2023-03-01T05:02:48;-2.30;99.90
7894;DHT22;51343;51.396;6.656;2023-03-01T05:05:19;-2.30;99.90
7894;DHT22;51343;51.396;6.656;2023-03-01T05:07:47;-2.30;99.90
7894;DHT22;51343;51.396;6.656;2023-03-01T05:10:14;-2.30;99.90
7894;DHT22;51343;51.396;6.656;2023-03-01T05:12:43;-2.40;99.90
7894;DHT22;51343;51.396;6.656;2023-03-01T05:15:10;-2.40;99.90
7894;DHT22;51343;51.396;6.656;2023-03-01T05:17:37;-2.40;99.90
7894;DHT22;51343;51.396;6.656;2023-03-01T05:20:04;-2.30;99.90
7894;DHT22;51343;51.396;6.656;2023-03-01T05:22:34;-2.30;99.90
7894;DHT22;51343;51.396;6.656;2023-03-01T05:25:03;-2.30;99.90
7894;DHT22;51343;51.396;6.656;2023-03-01T05:27:32;-2.30;99.90
7894;DHT22;51343;51.396;6.656;2023-03-01T05:30:03;-2.40;99.90
7894;DHT22;51343;51.396;6.656;2023-03-01T05:32:39;-2.40;99.90
7894;DHT22;51343;51.396;6.656;2023-03-01T05:35:08;-2.40;99.90
7894;DHT22;51343;51.396;6.656;2023-03-01T05:37:39;-2.40;99.90
7894;DHT22;51343;51.396;6.656;2023-03-01T05:40:07;-2.50;99.90
7894;DHT22;51343;51.396;6.656;2023-03-01T05:42:45;-2.50;99.90
7894;DHT22;51343;51.396;6.656;2023-03-01T05:45:14;-2.50;99.90
7894;DHT22;51343;51.396;6.656;2023-03-01T05:47:41;-2.50;99.90
7894;DHT22;51343;51.396;6.656;2023-03-01T05:50:28;-2.50;99.90
7894;DHT22;51343;51.396;6.656;2023-03-01T05:52:59;-2.50;99.90
7894;DHT22;51343;51.396;6.656;2023-03-01T05:55:26;-2.50;99.90
7894;DHT22;51343;51.396;6.656;2023-03-01T05:58:07;-2.50;99.90
7894;DHT22;51343;51.396;6.656;2023-03-01T06:00:40;-2.40;99.90
7894;DHT22;51343;51.396;6.656;2023-03-01T06:03:09;-2.40;99.90
7894;DHT22;51343;51.396;6.656;2023-03-01T06:05:36;-2.50;99.90
7894;DHT22;51343;51.396;6.656;2023-03-01T06:08:04;-2.40;99.90
7894;DHT22;51343;51.396;6.656;2023-03-01T06:10:31;-2.40;99.90
7894;DHT22;51343;51.396;6.656;2023-03-01T06:12:58;-2.40;99.90
7894;DHT22;51343;51.396;6.656;2023-03-01T06:15:25;-2.30;99.90
7894;DHT22;51343;51.396;6.656;2023-03-01T06:17:55;-2.30;99.90
7894;DHT22;51343;51.396;6.656;2023-03-01T06:20:30;-2.30;99.90
7894;DHT22;51343;51.396;6.656;2023-03-01T06:22:58;-2.40;99.90
7894;DHT22;51343;51.396;6.656;2023-03-01T06:25:26;-2.50;99.90
7894;DHT22;51343;51.396;6.656;2023-03-01T06:27:53;-2.50;99.90
7894;DHT22;51343;51.396;6.656;2023-03-01T06:30:26;-2.60;99.90
7894;DHT22;51343;51.396;6.656;2023-03-01T06:41:21;-2.60;99.90
7894;DHT22;51343;51.396;6.656;2023-03-01T06:46:55;-2.60;99.90
7894;DHT22;51343;51.396;6.656;2023-03-01T06:49:35;-2.60;99.90
7894;DHT22;51343;51.396;6.656;2023-03-01T06:55:12;-2.60;99.90
7894;DHT22;51343;51.396;6.656;2023-03-01T06:58:02;-2.70;99.90
7894;DHT22;51343;51.396;6.656;2023-03-01T07:00:49;-2.70;99.90
7894;DHT22;51343;51.396;6.656;2023-03-01T07:03:32;-2.60;99.90
7894;DHT22;51343;51.396;6.656;2023-03-01T07:12:00;-2.60;99.90
7894;DHT22;51343;51.396;6.656;2023-03-01T07:14:44;-2.50;99.90
7894;DHT22;51343;51.396;6.656;2023-03-01T07:23:35;-2.30;99.90
7894;DHT22;51343;51.396;6.656;2023-03-01T07:29:09;-2.10;99.90
7894;DHT22;51343;51.396;6.656;2023-03-01T07:35:00;-2.00;99.90
7894;DHT22;51343;51.396;6.656;2023-03-01T07:37:37;-1.90;99.90
7894;DHT22;51343;51.396;6.656;2023-03-01T07:40:15;-1.80;99.90
7894;DHT22;51343;51.396;6.656;2023-03-01T07:42:54;-1.80;99.90
7894;DHT22;51343;51.396;6.656;2023-03-01T07:48:37;-1.60;99.90
7894;DHT22;51343;51.396;6.656;2023-03-01T07:51:31;-1.50;99.90
7894;DHT22;51343;51.396;6.656;2023-03-01T07:57:10;-1.40;99.90
7894;DHT22;51343;51.396;6.656;2023-03-01T08:02:50;-1.20;99.90
7894;DHT22;51343;51.396;6.656;2023-03-01T08:14:36;-0.80;99.90
7894;DHT22;51343;51.396;6.656;2023-03-01T08:17:22;-0.70;99.90
7894;DHT22;51343;51.396;6.656;2023-03-01T08:23:12;-0.50;99.90
7894;DHT22;51343;51.396;6.656;2023-03-01T08:28:55;-0.30;99.90
7894;DHT22;51343;51.396;6.656;2023-03-01T08:34:34;-0.10;99.90
7894;DHT22;51343;51.396;6.656;2023-03-01T08:44:09;0.10;99.90
7894;DHT22;51343;51.396;6.656;2023-03-01T08:50:04;0.40;99.90
7894;DHT22;51343;51.396;6.656;2023-03-01T09:07:23;0.90;99.70
7894;DHT22;51343;51.396;6.656;2023-03-01T09:10:00;1.00;99.10
7894;DHT22;51343;51.396;6.656;2023-03-01T09:18:59;1.30;96.60
7894;DHT22;51343;51.396;6.656;2023-03-01T09:42:53;2.00;88.70
7894;DHT22;51343;51.396;6.656;2023-03-01T10:16:37;3.30;65.10
7894;DHT22;51343;51.396;6.656;2023-03-01T11:24:30;6.80;8.00
7894;DHT22;51343;51.396;6.656;2023-03-01T11:27:26;6.80;4.70
7894;DHT22;51343;51.396;6.656;2023-03-01T11:33:08;7.20;1.00
7894;DHT22;51343;51.396;6.656;2023-03-01T11:41:26;8.00;1.00
7894;DHT22;51343;51.396;6.656;2023-03-01T11:54:40;9.70;1.00
7894;DHT22;51343;51.396;6.656;2023-03-01T11:57:18;9.70;1.00
7894;DHT22;51343;51.396;6.656;2023-03-01T12:02:52;9.50;1.00
7894;DHT22;51343;51.396;6.656;2023-03-01T12:08:19;9.70;1.00
7894;DHT22;51343;51.396;6.656;2023-03-01T12:16:36;9.80;1.00
7894;DHT22;51343;51.396;6.656;2023-03-01T12:19:36;10.30;1.00
7894;DHT22;51343;51.396;6.656;2023-03-01T12:22:27;10.30;1.00
7894;DHT22;51343;51.396;6.656;2023-03-01T12:30:38;10.80;1.00
7894;DHT22;51343;51.396;6.656;2023-03-01T12:33:32;10.40;1.00
7894;DHT22;51343;51.396;6.656;2023-03-01T12:39:25;10.50;1.00
7894;DHT22;51343;51.396;6.656;2023-03-01T12:44:55;10.70;1.00
7894;DHT22;51343;51.396;6.656;2023-03-01T12:56:26;12.30;1.00
7894;DHT22;51343;51.396;6.656;2023-03-01T12:59:00;12.40;1.00
7894;DHT22;51343;51.396;6.656;2023-03-01T13:10:22;12.80;1.00
7894;DHT22;51343;51.396;6.656;2023-03-01T13:18:47;13.40;1.00
7894;DHT22;51343;51.396;6.656;2023-03-01T13:21:28;13.30;1.00
7894;DHT22;51343;51.396;6.656;2023-03-01T13:23:56;12.80;1.00
7894;DHT22;51343;51.396;6.656;2023-03-01T13:26:29;13.20;1.00
7894;DHT22;51343;51.396;6.656;2023-03-01T13:34:53;12.30;1.00
7894;DHT22;51343;51.396;6.656;2023-03-01T13:37:24;12.30;1.00
7894;DHT22;51343;51.396;6.656;2023-03-01T13:40:05;12.40;1.00
7894;DHT22;51343;51.396;6.656;2023-03-01T13:42:38;11.90;1.00
7894;DHT22;51343;51.396;6.656;2023-03-01T13:48:04;11.40;1.00
7894;DHT22;51343;51.396;6.656;2023-03-01T13:50:45;11.50;1.00
7894;DHT22;51343;51.396;6.656;2023-03-01T13:53:16;11.60;1.00
7894;DHT22;51343;51.396;6.656;2023-03-01T13:58:57;11.10;1.00
7894;DHT22;51343;51.396;6.656;2023-03-01T14:04:02;11.10;1.00
7894;DHT22;51343;51.396;6.656;2023-03-01T14:06:45;11.10;1.00
7894;DHT22;51343;51.396;6.656;2023-03-01T14:09:29;11.30;1.00
7894;DHT22;51343;51.396;6.656;2023-03-01T14:18:07;11.40;1.00
7894;DHT22;51343;51.396;6.656;2023-03-01T14:20:41;11.40;1.00
7894;DHT22;51343;51.396;6.656;2023-03-01T14:23:11;11.10;1.00
7894;DHT22;51343;51.396;6.656;2023-03-01T14:25:49;11.00;1.00
7894;DHT22;51343;51.396;6.656;2023-03-01T14:28:28;11.10;1.00
7894;DHT22;51343;51.396;6.656;2023-03-01T14:30:58;10.90;1.00
7894;DHT22;51343;51.396;6.656;2023-03-01T14:33:26;10.60;1.00
7894;DHT22;51343;51.396;6.656;2023-03-01T14:36:03;10.60;1.00
7894;DHT22;51343;51.396;6.656;2023-03-01T14:38:43;10.90;1.00
7894;DHT22;51343;51.396;6.656;2023-03-01T14:41:21;10.90;1.00
7894;DHT22;51343;51.396;6.656;2023-03-01T14:44:05;10.90;1.00
7894;DHT22;51343;51.396;6.656;2023-03-01T14:46:41;10.70;1.00
7894;DHT22;51343;51.396;6.656;2023-03-01T14:49:20;10.40;1.00
7894;DHT22;51343;51.396;6.656;2023-03-01T14:54:35;10.40;1.00
7894;DHT22;51343;51.396;6.656;2023-03-01T14:57:15;10.50;1.00
7894;DHT22;51343;51.396;6.656;2023-03-01T15:00:05;10.30;1.00
7894;DHT22;51343;51.396;6.656;2023-03-01T15:02:39;10.10;1.00
7894;DHT22;51343;51.396;6.656;2023-03-01T15:07:46;10.00;1.00
7894;DHT22;51343;51.396;6.656;2023-03-01T15:10:20;10.00;1.00
7894;DHT22;51343;51.396;6.656;2023-03-01T15:12:53;9.90;1.00
7894;DHT22;51343;51.396;6.656;2023-03-01T15:15:30;10.10;1.00
7894;DHT22;51343;51.396;6.656;2023-03-01T15:18:05;9.80;1.00
7894;DHT22;51343;51.396;6.656;2023-03-01T15:20:50;9.60;1.00
7894;DHT22;51343;51.396;6.656;2023-03-01T15:23:25;9.60;1.00
7894;DHT22;51343;51.396;6.656;2023-03-01T15:25:58;9.10;1.00
7894;DHT22;51343;51.396;6.656;2023-03-01T15:28:28;8.90;1.00
7894;DHT22;51343;51.396;6.656;2023-03-01T15:31:13;8.60;1.00
7894;DHT22;51343;51.396;6.656;2023-03-01T15:33:48;8.40;1.00
7894;DHT22;51343;51.396;6.656;2023-03-01T15:39:36;7.90;1.00
7894;DHT22;51343;51.396;6.656;2023-03-01T15:53:51;7.50;1.00
7894;DHT22;51343;51.396;6.656;2023-03-01T15:56:42;7.30;1.00
7894;DHT22;51343;51.396;6.656;2023-03-01T15:59:19;7.30;1.00
7894;DHT22;51343;51.396;6.656;2023-03-01T16:07:39;6.90;1.00
7894;DHT22;51343;51.396;6.656;2023-03-01T16:19:25;6.90;1.00
7894;DHT22;51343;51.396;6.656;2023-03-01T16:22:22;6.70;1.00
7894;DHT22;51343;51.396;6.656;2023-03-01T16:25:05;6.60;1.00
7894;DHT22;51343;51.396;6.656;2023-03-01T16:27:41;6.50;1.00
7894;DHT22;51343;51.396;6.656;2023-03-01T16:30:16;6.40;1.00
7894;DHT22;51343;51.396;6.656;2023-03-01T16:32:54;6.30;1.00
7894;DHT22;51343;51.396;6.656;2023-03-01T16:46:39;6.00;1.00
7894;DHT22;51343;51.396;6.656;2023-03-01T16:49:23;5.90;1.00
7894;DHT22;51343;51.396;6.656;2023-03-01T16:52:09;5.90;1.00
7894;DHT22;51343;51.396;6.656;2023-03-01T16:54:46;5.90;1.00
7894;DHT22;51343;51.396;6.656;2023-03-01T16:57:35;5.70;1.00
7894;DHT22;51343;51.396;6.656;2023-03-01T17:02:51;5.60;1.00
7894;DHT22;51343;51.396;6.656;2023-03-01T17:07:59;5.50;1.00
7894;DHT22;51343;51.396;6.656;2023-03-01T17:15:56;5.40;1.00
7894;DHT22;51343;51.396;6.656;2023-03-01T17:18:34;5.30;1.00
7894;DHT22;51343;51.396;6.656;2023-03-01T17:21:04;5.20;1.00
7894;DHT22;51343;51.396;6.656;2023-03-01T17:23:39;5.10;1.00
7894;DHT22;51343;51.396;6.656;2023-03-01T17:28:56;5.00;1.00
7894;DHT22;51343;51.396;6.656;2023-03-01T17:34:51;4.90;1.00
7894;DHT22;51343;51.396;6.656;2023-03-01T17:37:37;4.90;1.00
7894;DHT22;51343;51.396;6.656;2023-03-01T17:46:38;4.60;1.00
7894;DHT22;51343;51.396;6.656;2023-03-01T17:49:17;4.60;1.00
7894;DHT22;51343;51.396;6.656;2023-03-01T17:51:50;4.60;1.00
7894;DHT22;51343;51.396;6.656;2023-03-01T17:57:29;4.60;1.00
7894;DHT22;51343;51.396;6.656;2023-03-01T18:03:07;4.50;1.00
7894;DHT22;51343;51.396;6.656;2023-03-01T18:12:10;4.40;1.00
7894;DHT22;51343;51.396;6.656;2023-03-01T18:14:49;4.40;1.00
7894;DHT22;51343;51.396;6.656;2023-03-01T18:17:21;4.40;1.00
7894;DHT22;51343;51.396;6.656;2023-03-01T18:19:59;4.30;1.00
7894;DHT22;51343;51.396;6.656;2023-03-01T18:22:39;4.20;1.00
7894;DHT22;51343;51.396;6.656;2023-03-01T18:33:04;4.00;1.00
7894;DHT22;51343;51.396;6.656;2023-03-01T18:48:29;3.60;1.00
7894;DHT22;51343;51.396;6.656;2023-03-01T18:51:06;3.60;1.00
7894;DHT22;51343;51.396;6.656;2023-03-01T18:53:32;3.60;1.00
7894;DHT22;51343;51.396;6.656;2023-03-01T19:03:50;3.60;1.00
7894;DHT22;51343;51.396;6.656;2023-03-01T20:16:50;3.10;2.20
7894;DHT22;51343;51.396;6.656;2023-03-01T20:19:24;3.10;2.60
7894;DHT22;51343;51.396;6.656;2023-03-01T20:22:07;3.00;2.50
7894;DHT22;51343;51.396;6.656;2023-03-01T20:24:45;3.10;2.30
7894;DHT22;51343;51.396;6.656;2023-03-01T20:30:20;3.10;3.50
7894;DHT22;51343;51.396;6.656;2023-03-01T20:35:24;3.10;3.80
7894;DHT22;51343;51.396;6.656;2023-03-01T20:45:39;3.10;6.20
7894;DHT22;51343;51.396;6.656;2023-03-01T20:48:11;3.10;6.40
7894;DHT22;51343;51.396;6.656;2023-03-01T20:50:49;3.10;6.10
7894;DHT22;51343;51.396;6.656;2023-03-01T20:53:31;3.10;6.50
7894;DHT22;51343;51.396;6.656;2023-03-01T20:58:43;3.20;6.00
7894;DHT22;51343;51.396;6.656;2023-03-01T21:01:10;3.00;6.60
7894;DHT22;51343;51.396;6.656;2023-03-01T21:03:37;2.90;7.30
7894;DHT22;51343;51.396;6.656;2023-03-01T21:14:16;2.90;8.80
7894;DHT22;51343;51.396;6.656;2023-03-01T21:16:45;2.80;9.90
7894;DHT22;51343;51.396;6.656;2023-03-01T21:24:25;2.80;11.60
7894;DHT22;51343;51.396;6.656;2023-03-01T21:42:33;2.70;14.40
7894;DHT22;51343;51.396;6.656;2023-03-01T21:45:10;2.70;15.00
7894;DHT22;51343;51.396;6.656;2023-03-01T22:46:25;2.30;24.80
7894;DHT22;51343;51.396;6.656;2023-03-01T22:49:02;2.30;25.50
7894;DHT22;51343;51.396;6.656;2023-03-01T22:51:31;2.20;25.90
7894;DHT22;51343;51.396;6.656;2023-03-01T22:54:10;2.10;26.70
7894;DHT22;51343;51.396;6.656;2023-03-01T22:56:48;2.10;26.40
7894;DHT22;51343;51.396;6.656;2023-03-01T22:59:36;2.10;26.90
7894;DHT22;51343;51.396;6.656;2023-03-01T23:08:13;2.00;28.60
7894;DHT22;51343;51.396;6.656;2023-03-01T23:13:47;2.10;28.60
7894;DHT22;51343;51.396;6.656;2023-03-01T23:19:20;1.90;29.00
7894;DHT22;51343;51.396;6.656;2023-03-01T23:24:51;1.90;29.90
7894;DHT22;51343;51.396;6.656;2023-03-01T23:30:26;1.70;31.10
7894;DHT22;51343;51.396;6.656;2023-03-01T23:35:58;1.60;35.00
7894;DHT22;51343;51.396;6.656;2023-03-01T23:41:32;1.40;37.50
7894;DHT22;51343;51.396;6.656;2023-03-01T23:50:08;1.30;45.40
7894;DHT22;51343;51.396;6.656;2023-03-01T23:55:41;1.10;49.20
